Time;durP1;ratioP1;P1;durP2;ratioP2;P2;SDS_P1;SDS_P2;PMS_P1;PMS_P2;Temp;Humidity;BMP_temperature;BMP_pressure;BME280_temperature;BME280_humidity;BME280_pressure;Samples;Min_cycle;Max_cycle;Signal;HPM_P1;HPM_P2
2021/12/19 00:02:07;;;;;;;4.43;4.13;;;15.40;63.70;16.30;102692.00;;;;4947209;29;20612;-40
2021/12/19 00:08:26;;;;;;;4.93;4.53;;;15.40;63.70;16.30;102697.00;;;;4948098;29;20775;-39
2021/12/19 00:10:08;;;;;;;4.60;4.20;;;15.40;63.80;16.30;102685.00;;;;4947500;29;20180;-39
2021/12/19 00:12:33;;;;;;;4.80;4.40;;;15.30;63.70;16.20;102697.00;;;;4947405;29;20166;-39
2021/12/19 00:14:59;;;;;;;4.70;4.20;;;15.30;63.70;16.20;102685.00;;;;4947376;29;20205;-38
2021/12/19 00:17:25;;;;;;;4.87;4.47;;;15.30;63.90;16.20;102681.00;;;;4946928;28;20255;-39
2021/12/19 00:19:50;;;;;;;4.70;4.30;;;15.30;63.80;16.20;102675.00;;;;4947066;29;20181;-39
2021/12/19 00:22:16;;;;;;;4.97;4.57;;;15.30;63.70;16.20;102691.00;;;;4947473;29;20205;-39
2021/12/19 00:24:42;;;;;;;5.17;4.77;;;15.30;63.80;16.20;102602.00;;;;4947548;29;20241;-38
2021/12/19 00:27:08;;;;;;;4.87;4.47;;;15.20;63.80;16.20;102671.00;;;;4946557;28;20170;-39
2021/12/19 00:29:34;;;;;;;5.17;4.77;;;15.20;64.10;16.20;102669.00;;;;4947398;29;20180;-39
2021/12/19 00:31:59;;;;;;;4.73;4.37;;;15.20;64.00;16.20;102673.00;;;;4947022;29;20173;-40
2021/12/19 00:34:25;;;;;;;5.43;4.93;;;15.20;63.90;16.20;102671.00;;;;4947149;28;20221;-39
2021/12/19 00:36:51;;;;;;;4.93;4.53;;;15.20;64.00;16.10;102679.00;;;;4946983;28;20170;-39
2021/12/19 00:39:17;;;;;;;5.40;5.00;;;15.10;63.90;16.10;102671.00;;;;4947003;29;20439;-39
2021/12/19 00:41:42;;;;;;;5.13;4.73;;;15.10;64.10;16.10;102666.00;;;;4947344;29;20186;-39
2021/12/19 00:44:10;;;;;;;5.13;4.67;;;15.10;64.00;16.10;102674.00;;;;4947077;29;20194;-39
2021/12/19 00:46:51;;;;;;;5.60;5.10;;;15.10;64.10;16.10;102585.00;;;;4946844;29;20186;-39
2021/12/19 00:49:17;;;;;;;5.43;4.93;;;15.10;64.10;16.10;102654.00;;;;4946985;28;20552;-39
2021/12/19 00:51:43;;;;;;;5.20;4.80;;;15.10;64.10;16.10;102655.00;;;;4948604;28;20185;-39
2021/12/19 00:54:09;;;;;;;5.17;4.77;;;15.10;64.20;16.10;102662.00;;;;4951110;29;20256;-39
2021/12/19 00:56:37;;;;;;;5.43;4.93;;;15.00;64.10;16.10;102652.00;;;;4950261;28;20197;-38
2021/12/19 00:59:03;;;;;;;5.80;5.30;;;15.00;64.10;16.10;102652.00;;;;4950862;28;20177;-40
2021/12/19 01:01:29;;;;;;;5.67;5.17;;;15.00;64.00;16.00;102652.00;;;;4950712;28;20201;-39
2021/12/19 01:03:54;;;;;;;5.27;4.77;;;15.00;64.10;16.00;102641.00;;;;4950863;29;20198;-38
2021/12/19 01:06:20;;;;;;;5.00;4.60;;;15.00;64.10;16.00;102634.00;;;;4950012;29;20680;-39
2021/12/19 01:08:47;;;;;;;5.27;4.87;;;15.00;64.10;16.00;102648.00;;;;4950667;28;20177;-39
2021/12/19 01:11:12;;;;;;;5.57;5.07;;;15.00;64.10;16.00;102644.00;;;;4950353;28;20192;-39
2021/12/19 01:13:38;;;;;;;5.27;4.87;;;15.00;64.10;16.00;102646.00;;;;4950651;28;20190;-39
2021/12/19 01:16:04;;;;;;;5.27;4.87;;;14.90;63.90;16.00;102634.00;;;;4950347;29;20201;-39
2021/12/19 01:18:30;;;;;;;5.43;5.00;;;14.90;63.90;16.00;102645.00;;;;4950347;28;20558;-39
2021/12/19 01:20:56;;;;;;;5.80;5.30;;;14.90;63.90;16.00;102647.00;;;;4950325;28;20225;-39
2021/12/19 01:23:22;;;;;;;5.50;5.10;;;14.90;64.00;16.00;102641.00;;;;4950077;29;20263;-39
2021/12/19 01:25:49;;;;;;;6.57;5.50;;;14.80;63.90;15.90;102629.00;;;;4950033;28;20177;-39
2021/12/19 01:28:15;;;;;;;5.70;5.20;;;14.80;63.90;15.90;102632.00;;;;4950481;28;20173;-39
2021/12/19 01:30:40;;;;;;;5.67;5.27;;;14.90;63.90;15.90;102626.00;;;;4951021;28;20686;-39
2021/12/19 01:33:06;;;;;;;5.40;5.00;;;14.80;63.80;15.90;102635.00;;;;4950190;29;20173;-39
2021/12/19 01:35:32;;;;;;;5.67;5.23;;;14.90;63.90;15.90;102632.00;;;;4949723;29;20205;-39
2021/12/19 01:37:57;;;;;;;5.60;5.10;;;14.80;64.00;15.90;102633.00;;;;4949644;29;20201;-39
2021/12/19 01:40:23;;;;;;;5.70;5.20;;;14.80;63.80;15.90;102552.00;;;;4950287;29;20200;-39
2021/12/19 01:42:55;;;;;;;5.67;5.17;;;14.80;64.20;15.90;102640.00;;;;4950157;29;20213;-39
2021/12/19 01:45:33;;;;;;;5.90;5.40;;;14.80;63.80;15.80;102622.00;;;;4949796;28;20194;-39
2021/12/19 01:48:00;;;;;;;6.00;5.50;;;14.70;64.00;15.80;102596.00;;;;4949550;28;20194;-39
2021/12/19 01:50:26;;;;;;;5.73;5.23;;;14.70;64.20;15.80;102621.00;;;;4949771;29;20208;-39
2021/12/19 01:52:52;;;;;;;5.73;5.23;;;14.70;64.00;15.80;102616.00;;;;4950000;28;20295;-39
2021/12/19 01:55:18;;;;;;;5.17;4.77;;;14.70;64.00;15.80;102620.00;;;;4949845;28;20197;-39
2021/12/19 01:57:44;;;;;;;5.70;5.20;;;14.70;63.90;15.80;102615.00;;;;4949677;29;20529;-39
2021/12/19 02:00:23;;;;;;;5.77;5.27;;;14.70;64.10;15.80;102610.00;;;;4949584;28;20174;-39
2021/12/19 02:02:48;;;;;;;5.43;5.03;;;14.70;64.10;15.80;102601.00;;;;4948859;28;20205;-39
2021/12/19 02:05:14;;;;;;;5.40;4.90;;;14.70;64.10;15.80;102600.00;;;;4949357;29;20193;-39
2021/12/19 02:07:46;;;;;;;5.23;4.83;;;14.60;63.70;15.80;102602.00;;;;4949549;29;20470;-38
2021/12/19 02:10:11;;;;;;;5.40;4.97;;;14.60;64.10;15.80;102602.00;;;;4949631;28;20666;-38
2021/12/19 02:12:38;;;;;;;5.50;5.10;;;14.70;64.00;15.80;102604.00;;;;4949495;29;20158;-38
2021/12/19 02:15:05;;;;;;;5.53;5.10;;;14.60;64.00;15.70;102603.00;;;;4949485;28;20190;-38
2021/12/19 02:17:30;;;;;;;5.50;5.00;;;14.60;63.80;15.70;102604.00;;;;4948928;28;20567;-40
2021/12/19 02:19:57;;;;;;;5.27;4.87;;;14.60;64.00;15.70;102596.00;;;;4949343;29;20186;-40
2021/12/19 02:22:22;;;;;;;5.37;4.93;;;14.60;63.90;15.70;102598.00;;;;4949523;28;20213;-39
2021/12/19 02:24:48;;;;;;;5.03;4.63;;;14.60;64.00;15.70;102599.00;;;;4951772;28;20418;-39
2021/12/19 02:27:14;;;;;;;5.00;4.60;;;14.60;64.10;15.70;102591.00;;;;4967644;28;20177;-39
2021/12/19 02:29:40;;;;;;;5.50;5.00;;;14.60;64.20;15.60;102601.00;;;;4968358;28;20172;-39
2021/12/19 02:32:06;;;;;;;5.40;4.93;;;14.60;64.30;15.60;102585.00;;;;4967870;28;20661;-39
2021/12/19 02:34:39;;;;;;;5.40;4.97;;;14.60;64.20;15.60;102590.00;;;;4967874;28;20205;-40
2021/12/19 02:37:14;;;;;;;5.57;5.17;;;14.60;64.40;15.60;102587.00;;;;4971253;28;20169;-39
2021/12/19 02:50:16;;;;;;;5.63;5.13;;;14.50;64.50;15.50;102575.00;;;;4967728;28;20349;-40
2021/12/19 02:52:42;;;;;;;5.00;4.60;;;14.50;64.50;15.50;102572.00;;;;4966963;28;20184;-38
2021/12/19 02:55:09;;;;;;;5.50;5.00;;;14.50;64.30;15.50;102570.00;;;;4966408;28;20199;-38
2021/12/19 02:57:36;;;;;;;5.10;4.70;;;14.40;64.10;15.50;102571.00;;;;4967548;28;20177;-38
2021/12/19 03:00:06;;;;;;;4.77;4.37;;;14.40;64.20;15.50;102574.00;;;;4950961;28;20185;-40
2021/12/19 03:02:32;;;;;;;5.03;4.63;;;14.40;64.20;15.50;102574.00;;;;4964997;28;20200;-38
2021/12/19 03:05:00;;;;;;;4.90;4.50;;;14.40;64.20;15.50;102564.00;;;;4967566;28;20193;-38
2021/12/19 03:07:26;;;;;;;5.10;4.70;;;14.40;64.10;15.50;102568.00;;;;4966981;28;20169;-38
2021/12/19 03:18:11;;;;;;;4.80;4.40;;;14.40;63.90;15.40;102554.00;;;;4967604;28;20168;-39
2021/12/19 03:20:38;;;;;;;4.73;4.33;;;14.30;64.10;15.40;102557.00;;;;4967662;28;20179;-38
2021/12/19 03:23:05;;;;;;;4.90;4.50;;;14.30;63.90;15.40;102546.00;;;;4967743;28;20193;-38
2021/12/19 03:25:31;;;;;;;5.00;4.60;;;14.30;64.00;15.40;102547.00;;;;4967220;28;20196;-38
2021/12/19 03:27:57;;;;;;;4.23;3.93;;;14.30;64.10;15.40;102545.00;;;;4967337;28;20644;-38
2021/12/19 03:30:22;;;;;;;4.70;4.30;;;14.30;64.10;15.40;102550.00;;;;4967201;28;20188;-38
2021/12/19 03:32:48;;;;;;;4.83;4.43;;;14.30;64.20;15.50;102551.00;;;;4956451;28;20701;-38
2021/12/19 03:35:14;;;;;;;4.33;4.03;;;14.30;63.90;15.40;102545.00;;;;4948340;29;20543;-38
2021/12/19 03:37:41;;;;;;;4.80;4.40;;;14.30;64.00;15.40;102538.00;;;;4947520;28;20182;-38
2021/12/19 03:40:10;;;;;;;4.50;4.20;;;14.30;64.20;15.40;102535.00;;;;4948348;28;20381;-38
2021/12/19 03:42:47;;;;;;;4.77;4.40;;;14.30;64.20;15.40;102529.00;;;;4947586;29;20467;-38
2021/12/19 03:45:17;;;;;;;4.60;4.20;;;14.30;64.00;15.40;102522.00;;;;4948434;29;20217;-38
2021/12/19 03:47:43;;;;;;;4.70;4.30;;;14.30;64.10;15.40;102527.00;;;;4947510;28;20213;-38
2021/12/19 03:50:11;;;;;;;4.30;4.00;;;14.30;64.10;15.40;102518.00;;;;4947519;28;20260;-38
2021/12/19 03:52:37;;;;;;;4.80;4.40;;;14.30;64.10;15.40;102527.00;;;;4947770;28;20573;-38
2021/12/19 03:55:03;;;;;;;4.10;3.80;;;14.30;64.40;15.40;102527.00;;;;4947912;29;20209;-38
2021/12/19 03:57:28;;;;;;;4.40;4.00;;;14.20;64.20;15.30;102519.00;;;;4946150;29;20692;-38
2021/12/19 03:59:54;;;;;;;4.17;3.87;;;14.20;64.10;15.40;102520.00;;;;4947132;29;20178;-38
2021/12/19 04:02:27;;;;;;;4.40;4.10;;;14.20;64.10;15.30;102512.00;;;;4947193;28;20445;-38
2021/12/19 04:04:55;;;;;;;4.23;3.93;;;14.20;64.10;15.30;102517.00;;;;4947625;29;20225;-38
2021/12/19 04:07:21;;;;;;;4.43;4.03;;;14.20;64.00;15.30;102503.00;;;;4946966;28;20561;-38
2021/12/19 04:09:47;;;;;;;4.17;3.87;;;14.20;64.00;15.30;102506.00;;;;4947507;29;20246;-38
2021/12/19 04:12:13;;;;;;;4.23;3.90;;;14.20;64.10;15.30;102497.00;;;;4947457;28;20173;-39
2021/12/19 04:14:39;;;;;;;4.20;3.90;;;14.20;64.10;15.30;102502.00;;;;4947655;28;20301;-38
2021/12/19 04:17:04;;;;;;;4.00;3.70;;;14.20;63.90;15.30;102495.00;;;;4946593;29;20184;-39
2021/12/19 04:19:30;;;;;;;4.67;4.27;;;14.20;64.10;15.20;102482.00;;;;4947554;29;20216;-39
2021/12/19 04:21:57;;;;;;;4.10;3.80;;;14.20;64.00;15.20;102487.00;;;;4947056;28;20202;-39
2021/12/19 04:24:22;;;;;;;4.20;3.90;;;14.20;64.00;15.20;102471.00;;;;4947670;28;20285;-39
2021/12/19 04:26:48;;;;;;;4.10;3.80;;;14.10;64.20;15.20;102470.00;;;;4950729;28;20461;-39
2021/12/19 04:29:14;;;;;;;3.97;3.67;;;14.20;64.30;15.20;102473.00;;;;4956247;28;20659;-39
2021/12/19 04:31:40;;;;;;;3.73;3.43;;;14.10;63.80;15.30;102468.00;;;;4972053;28;20231;-39
2021/12/19 04:34:06;;;;;;;3.80;3.50;;;14.20;64.10;15.20;102460.00;;;;4972495;28;20651;-39
2021/12/19 04:36:38;;;;;;;4.30;4.00;;;14.20;64.10;15.20;102464.00;;;;4972166;28;20336;-39
2021/12/19 04:39:34;;;;;;;3.90;3.60;;;14.20;63.90;15.20;102473.00;;;;4972527;28;20588;-39
2021/12/19 04:57:53;;;;;;;3.90;3.60;;;14.00;64.00;15.20;102465.00;;;;4972116;28;20570;-39
2021/12/19 05:00:30;;;;;;;3.83;3.53;;;14.10;64.20;15.10;102452.00;;;;4972772;28;20794;-39
2021/12/19 05:03:02;;;;;;;3.80;3.50;;;14.00;63.90;15.20;102455.00;;;;4972867;28;20212;-39
2021/12/19 05:16:07;;;;;;;3.63;3.33;;;14.00;64.00;15.10;102445.00;;;;4972067;28;20247;-39
2021/12/19 05:18:36;;;;;;;3.83;3.53;;;14.00;64.10;15.10;102460.00;;;;4972175;28;20586;-39
2021/12/19 05:21:11;;;;;;;3.83;3.53;;;14.00;64.10;15.10;102448.00;;;;4972010;28;20603;-39
2021/12/19 05:24:17;;;;;;;3.70;3.40;;;14.00;64.10;15.10;102442.00;;;;4972148;28;20200;-39
2021/12/19 05:26:25;;;;;;;4.17;3.77;;;14.00;64.00;15.10;102442.00;;;;4971570;28;20181;-39
2021/12/19 05:28:52;;;;;;;4.03;3.17;;;14.00;64.00;15.10;102446.00;;;;4971106;28;20252;-39
2021/12/19 05:31:21;;;;;;;3.60;3.30;;;14.00;64.00;15.10;102438.00;;;;4971940;28;20235;-39
2021/12/19 05:33:47;;;;;;;3.40;3.20;;;14.00;63.90;15.00;102440.00;;;;4972293;28;20320;-39
2021/12/19 05:46:53;;;;;;;4.10;3.23;;;13.90;64.00;15.00;102439.00;;;;4968703;28;20486;-39
2021/12/19 05:49:19;;;;;;;3.40;3.10;;;13.90;64.00;15.00;102431.00;;;;4968531;28;20188;-39
2021/12/19 05:51:46;;;;;;;3.63;3.33;;;13.90;64.10;15.00;102433.00;;;;4969034;28;20181;-39
2021/12/19 05:54:12;;;;;;;3.53;3.23;;;13.90;64.00;14.80;102426.00;;;;4968750;28;20232;-39
2021/12/19 05:56:38;;;;;;;3.47;3.13;;;13.90;64.30;15.00;102423.00;;;;4968344;28;20703;-39
2021/12/19 05:59:03;;;;;;;3.50;3.20;;;13.90;64.30;15.00;102429.00;;;;4968680;28;20481;-39
2021/12/19 06:01:29;;;;;;;3.57;3.27;;;13.90;64.20;15.00;102420.00;;;;4968554;28;20390;-39
2021/12/19 06:03:55;;;;;;;3.20;3.00;;;13.90;64.00;15.00;102420.00;;;;4968633;28;20224;-39
2021/12/19 06:06:20;;;;;;;3.00;2.80;;;13.90;64.20;14.80;102420.00;;;;4967729;28;20542;-39
2021/12/19 06:08:46;;;;;;;3.30;3.00;;;13.90;64.00;15.00;102418.00;;;;4967838;28;20224;-39
2021/12/19 06:11:14;;;;;;;3.07;2.87;;;13.90;64.00;15.00;102408.00;;;;4967921;28;20505;-39
2021/12/19 06:13:40;;;;;;;3.20;3.00;;;13.90;64.10;15.00;102415.00;;;;4968908;28;20538;-39
2021/12/19 06:16:07;;;;;;;3.20;3.00;;;13.90;64.20;14.90;102411.00;;;;4967819;28;20672;-39
2021/12/19 06:18:33;;;;;;;3.37;3.07;;;13.90;64.10;15.00;102404.00;;;;4968438;28;20177;-39
2021/12/19 06:20:59;;;;;;;3.00;2.80;;;13.90;64.10;14.90;102406.00;;;;4967957;28;20660;-39
2021/12/19 06:23:25;;;;;;;3.37;2.70;;;13.90;64.40;14.90;102399.00;;;;4964998;28;20212;-39
2021/12/19 06:25:50;;;;;;;3.30;3.00;;;13.80;64.10;14.90;102408.00;;;;4969174;28;20640;-39
2021/12/19 06:28:17;;;;;;;3.10;2.90;;;13.80;64.10;14.90;102399.00;;;;4970602;28;20211;-39
2021/12/19 06:30:43;;;;;;;3.20;3.00;;;13.80;64.00;14.90;102404.00;;;;4971368;28;20247;-39
2021/12/19 06:33:08;;;;;;;4.10;2.90;;;13.80;64.10;14.90;102406.00;;;;4970811;28;20611;-39
2021/12/19 06:35:34;;;;;;;4.43;2.90;;;13.80;63.90;14.90;102404.00;;;;4970776;28;20475;-39
2021/12/19 06:38:00;;;;;;;3.07;2.80;;;13.80;64.40;14.90;102410.00;;;;4970347;28;20247;-39
2021/12/19 06:40:26;;;;;;;3.00;2.70;;;13.80;64.30;14.90;102407.00;;;;4971339;28;20177;-39
2021/12/19 06:42:52;;;;;;;3.20;3.00;;;13.80;64.10;14.90;102420.00;;;;4953683;28;20620;-39
2021/12/19 06:45:19;;;;;;;8.10;2.90;;;13.80;64.10;14.90;102416.00;;;;4970286;28;20200;-38
2021/12/19 06:47:45;;;;;;;4.80;2.70;;;13.80;64.10;14.90;102412.00;;;;4969823;28;20343;-39
2021/12/19 06:50:12;;;;;;;4.13;2.83;;;13.80;64.80;14.90;102402.00;;;;4970551;28;20263;-39
2021/12/19 06:52:38;;;;;;;4.10;3.07;;;13.80;64.90;14.90;102395.00;;;;4970847;28;20180;-39
2021/12/19 06:55:04;;;;;;;5.90;3.00;;;13.80;64.80;14.90;102405.00;;;;4969668;28;20228;-39
2021/12/19 06:57:29;;;;;;;5.70;2.90;;;13.80;65.20;14.90;102409.00;;;;4969992;28;20185;-39
2021/12/19 06:59:55;;;;;;;3.33;2.70;;;13.80;65.50;14.90;102396.00;;;;4970792;28;20180;-39
2021/12/19 07:02:21;;;;;;;6.40;2.90;;;13.80;65.40;14.90;102403.00;;;;4970759;28;20635;-39
2021/12/19 07:04:47;;;;;;;5.83;2.83;;;13.80;65.40;14.80;102394.00;;;;4970518;28;20663;-39
2021/12/19 07:07:12;;;;;;;10.00;2.87;;;13.80;65.60;14.90;102396.00;;;;4969251;28;20169;-39
2021/12/19 07:09:39;;;;;;;4.10;2.93;;;13.80;66.00;14.80;102386.00;;;;4970086;28;20177;-39
2021/12/19 07:12:06;;;;;;;4.93;2.90;;;13.80;65.80;14.90;102391.00;;;;4970424;28;20173;-39
2021/12/19 07:14:31;;;;;;;4.67;2.93;;;13.80;65.50;14.90;102399.00;;;;4969538;28;20211;-39
2021/12/19 07:16:57;;;;;;;3.93;2.90;;;13.80;65.70;14.90;102389.00;;;;4969198;28;20189;-39
2021/12/19 07:19:23;;;;;;;3.20;2.90;;;13.90;65.60;15.00;102391.00;;;;4969920;28;20188;-39
2021/12/19 07:21:49;;;;;;;4.33;2.93;;;14.10;65.60;15.00;102384.00;;;;4970471;28;20203;-39
2021/12/19 07:24:15;;;;;;;3.80;3.03;;;14.30;65.20;15.10;102387.00;;;;4970465;28;20225;-39
2021/12/19 07:26:41;;;;;;;3.50;2.77;;;14.60;64.90;15.30;102371.00;;;;4969376;28;20223;-39
2021/12/19 07:29:06;;;;;;;3.83;2.90;;;14.90;64.30;15.40;102382.00;;;;4969749;28;20184;-39
2021/12/19 07:31:36;;;;;;;4.00;2.43;;;15.10;64.00;15.60;102373.00;;;;4969947;28;20169;-40
2021/12/19 07:34:02;;;;;;;3.10;2.70;;;15.40;63.40;15.70;102374.00;;;;4970116;28;20644;-39
2021/12/19 07:36:35;;;;;;;4.60;2.60;;;15.60;63.00;15.90;102364.00;;;;4968990;28;20180;-39
2021/12/19 07:39:07;;;;;;;2.70;2.50;;;15.70;62.90;16.00;102367.00;;;;4969727;28;20165;-39
2021/12/19 07:41:33;;;;;;;5.03;2.60;;;15.70;62.70;16.10;102371.00;;;;4970133;28;20189;-39
2021/12/19 07:43:59;;;;;;;3.70;2.73;;;15.80;62.60;16.20;102374.00;;;;4970048;28;20204;-39
2021/12/19 07:46:25;;;;;;;2.70;2.50;;;15.80;62.50;16.20;102372.00;;;;4969170;28;20200;-39
2021/12/19 07:48:50;;;;;;;2.70;2.50;;;15.90;62.60;16.30;102383.00;;;;4969760;28;20173;-40
2021/12/19 07:51:16;;;;;;;4.93;2.53;;;15.90;62.70;16.40;102370.00;;;;4969739;28;20181;-39
2021/12/19 07:53:42;;;;;;;2.33;2.10;;;15.90;62.60;16.40;102371.00;;;;4969791;28;20537;-39
2021/12/19 07:56:07;;;;;;;2.50;2.30;;;16.00;62.60;16.40;102382.00;;;;4969275;28;20173;-39
2021/12/19 07:58:33;;;;;;;3.67;2.30;;;16.00;62.50;16.50;102371.00;;;;4968032;28;20527;-39
2021/12/19 08:00:59;;;;;;;2.97;2.50;;;16.00;62.50;16.50;102369.00;;;;4969561;28;20251;-39
2021/12/19 08:03:25;;;;;;;2.60;2.40;;;15.90;62.60;16.50;102368.00;;;;4969474;28;20215;-38
2021/12/19 08:05:50;;;;;;;3.40;2.20;;;15.90;62.70;16.50;102370.00;;;;4969290;28;20188;-38
2021/12/19 08:08:21;;;;;;;2.60;2.20;;;15.90;62.70;16.50;102373.00;;;;4969343;28;20648;-40
2021/12/19 08:13:13;;;;;;;3.27;2.23;;;15.90;63.00;16.50;102370.00;;;;4969908;28;20523;-38
2021/12/19 08:15:38;;;;;;;2.50;2.30;;;15.80;63.00;16.50;102365.00;;;;4968598;28;20255;-38
2021/12/19 08:18:05;;;;;;;2.70;2.10;;;15.80;63.10;16.50;102374.00;;;;4968418;28;20181;-39
2021/12/19 08:20:31;;;;;;;2.10;1.90;;;15.80;63.10;16.50;102367.00;;;;4968099;28;20185;-38
2021/12/19 08:22:57;;;;;;;2.87;2.20;;;15.80;63.10;16.50;102374.00;;;;4969031;28;20747;-38
2021/12/19 08:25:23;;;;;;;2.30;2.10;;;15.80;63.30;16.50;102348.00;;;;4970325;28;20189;-39
2021/12/19 08:27:49;;;;;;;2.30;2.10;;;15.80;63.30;16.50;102365.00;;;;4974542;28;20663;-39
2021/12/19 08:30:15;;;;;;;2.50;2.30;;;15.70;63.30;16.50;102369.00;;;;4970325;28;20195;-38
2021/12/19 08:32:41;;;;;;;2.40;2.20;;;15.70;63.40;16.50;102362.00;;;;4969240;28;20544;-38
2021/12/19 08:35:07;;;;;;;2.10;2.00;;;15.70;63.50;16.50;102364.00;;;;4969259;28;20391;-39
2021/12/19 08:37:33;;;;;;;2.50;2.30;;;15.70;63.50;16.50;102366.00;;;;4968638;28;20236;-39
2021/12/19 08:39:59;;;;;;;2.53;2.33;;;15.60;63.50;16.50;102368.00;;;;4969792;28;20181;-39
2021/12/19 08:42:24;;;;;;;2.37;2.17;;;15.60;63.50;16.50;102369.00;;;;4969425;28;20725;-38
2021/12/19 08:44:50;;;;;;;2.33;2.13;;;15.60;63.70;16.50;102358.00;;;;4968981;28;20197;-38
2021/12/19 08:47:16;;;;;;;2.20;2.10;;;15.60;63.70;16.50;102354.00;;;;4967928;28;20216;-40
2021/12/19 08:49:42;;;;;;;2.40;2.20;;;15.60;63.70;16.50;102358.00;;;;4969107;28;20173;-38
2021/12/19 08:52:08;;;;;;;2.23;2.10;;;15.50;63.60;16.40;102355.00;;;;4969395;28;20553;-38
2021/12/19 08:54:34;;;;;;;2.07;1.93;;;15.50;63.70;16.40;102358.00;;;;4970714;28;20196;-38
2021/12/19 08:57:00;;;;;;;1.80;1.70;;;15.50;63.80;16.40;102263.00;;;;4968615;28;20184;-38
2021/12/19 08:59:27;;;;;;;2.37;2.17;;;15.50;63.80;16.40;102352.00;;;;4968840;28;20189;-39
2021/12/19 09:01:54;;;;;;;1.87;1.77;;;15.50;63.90;16.40;102348.00;;;;4968902;28;20259;-39
2021/12/19 09:04:19;;;;;;;2.00;1.90;;;15.50;63.90;16.40;102349.00;;;;4968954;28;20678;-39
2021/12/19 09:06:45;;;;;;;2.10;1.97;;;15.40;63.80;16.40;102339.00;;;;4967947;28;20240;-39
2021/12/19 09:09:11;;;;;;;2.07;1.97;;;15.40;63.90;16.40;102341.00;;;;4968554;28;20803;-40
2021/12/19 09:11:36;;;;;;;2.33;2.13;;;15.40;63.90;16.30;102345.00;;;;4967301;28;20227;-39
2021/12/19 09:14:02;;;;;;;2.20;2.00;;;15.40;64.10;16.30;102341.00;;;;4971976;28;20193;-40
2021/12/19 09:16:28;;;;;;;1.87;1.77;;;15.50;64.10;16.30;102342.00;;;;4971583;28;20177;-39
2021/12/19 09:18:54;;;;;;;2.33;2.00;;;15.40;64.00;16.30;102345.00;;;;4972050;28;20173;-39
2021/12/19 09:21:19;;;;;;;2.20;2.00;;;15.30;63.90;16.30;102350.00;;;;4972426;28;20664;-39
2021/12/19 09:23:45;;;;;;;2.17;2.00;;;15.30;64.00;16.30;102348.00;;;;4972279;28;20213;-40
2021/12/19 09:26:11;;;;;;;2.07;1.97;;;15.30;63.90;16.30;102347.00;;;;4971453;28;20177;-39
2021/12/19 09:28:37;;;;;;;2.40;2.20;;;15.30;64.10;16.30;102350.00;;;;4972101;28;20173;-39
2021/12/19 09:31:03;;;;;;;2.40;2.20;;;15.30;64.10;16.20;102351.00;;;;4972522;28;20779;-39
2021/12/19 09:33:29;;;;;;;2.17;2.03;;;15.30;64.20;16.20;102348.00;;;;4977057;28;20240;-39
2021/12/19 09:35:54;;;;;;;2.17;1.90;;;15.20;64.00;16.20;102343.00;;;;4974507;28;20527;-39
2021/12/19 09:38:21;;;;;;;2.10;2.00;;;15.30;64.10;16.20;102340.00;;;;4971664;28;20470;-39
2021/12/19 09:40:47;;;;;;;1.90;1.80;;;15.20;64.10;16.20;102335.00;;;;4972574;28;20578;-39
2021/12/19 09:45:59;;;;;;;2.20;2.00;;;15.20;64.10;16.10;102339.00;;;;4972124;28;20160;-39
2021/12/19 09:48:25;;;;;;;1.87;1.70;;;15.20;64.00;16.10;102343.00;;;;4970559;28;20572;-39
2021/12/19 09:50:51;;;;;;;1.80;1.70;;;15.20;64.10;16.10;102332.00;;;;4971448;28;20176;-39
2021/12/19 09:53:17;;;;;;;1.83;1.73;;;15.10;64.00;16.10;102335.00;;;;4970818;28;20169;-39
2021/12/19 09:55:42;;;;;;;2.10;2.00;;;15.10;64.20;16.10;102341.00;;;;4971205;28;20477;-39
2021/12/19 09:58:08;;;;;;;1.83;1.73;;;15.10;64.20;16.10;102332.00;;;;4970088;28;20177;-39
2021/12/19 10:00:34;;;;;;;1.80;1.70;;;15.10;64.20;16.10;102326.00;;;;4971490;28;20544;-39
2021/12/19 10:03:00;;;;;;;1.80;1.70;;;15.10;64.20;16.10;102325.00;;;;4970392;28;20201;-39
2021/12/19 10:05:26;;;;;;;2.00;1.90;;;15.10;64.20;16.10;102318.00;;;;4970174;28;20192;-39
2021/12/19 10:07:54;;;;;;;2.10;1.90;;;15.00;64.10;16.10;102312.00;;;;4970310;28;20169;-39
2021/12/19 10:10:33;;;;;;;2.00;1.90;;;15.00;64.10;16.00;102317.00;;;;4970598;28;20235;-39
2021/12/19 10:12:59;;;;;;;1.90;1.80;;;15.00;64.10;16.00;102304.00;;;;4970771;28;20174;-39
2021/12/19 10:15:31;;;;;;;1.83;1.73;;;15.00;64.10;16.00;102300.00;;;;4969562;28;20201;-39
2021/12/19 10:18:02;;;;;;;1.90;1.80;;;15.00;64.10;16.00;102301.00;;;;4970474;28;20257;-39
2021/12/19 10:20:44;;;;;;;1.83;1.73;;;15.00;64.10;16.00;102298.00;;;;4971455;28;20196;-39
2021/12/19 10:23:12;;;;;;;1.97;1.87;;;15.00;64.10;16.00;102305.00;;;;4968113;28;20271;-39
2021/12/19 10:25:39;;;;;;;1.80;1.70;;;15.00;64.50;16.00;102287.00;;;;4950532;28;20193;-39
2021/12/19 10:28:06;;;;;;;1.90;1.80;;;14.90;64.10;16.00;102293.00;;;;4951268;28;20353;-39
2021/12/19 10:30:43;;;;;;;1.80;1.70;;;14.90;63.90;15.90;102286.00;;;;4951556;28;20668;-39
2021/12/19 10:33:11;;;;;;;1.90;1.80;;;14.90;63.90;15.90;102289.00;;;;4955232;28;20154;-39
2021/12/19 10:35:40;;;;;;;1.87;1.77;;;14.90;64.10;15.90;102278.00;;;;4951918;28;20688;-39
2021/12/19 10:38:27;;;;;;;2.10;2.00;;;14.90;64.00;15.90;102280.00;;;;4950622;28;20652;-39
2021/12/19 10:41:20;;;;;;;1.83;1.73;;;14.80;63.80;15.90;102275.00;;;;4953652;28;20178;-39
2021/12/19 10:44:01;;;;;;;1.90;1.80;;;14.90;64.00;15.90;102270.00;;;;4951719;28;20316;-39
2021/12/19 10:46:28;;;;;;;1.77;1.67;;;14.80;64.10;15.80;102272.00;;;;4950850;28;20656;-39
2021/12/19 10:48:54;;;;;;;1.80;1.70;;;14.80;64.30;15.80;102262.00;;;;4950173;29;20166;-39
2021/12/19 10:51:20;;;;;;;1.80;1.70;;;14.80;64.20;15.80;102266.00;;;;4951269;28;20181;-39
2021/12/19 10:53:54;;;;;;;1.90;1.80;;;14.80;64.10;15.80;102263.00;;;;4951696;28;20230;-40
2021/12/19 10:56:30;;;;;;;1.90;1.80;;;14.70;64.10;15.80;102256.00;;;;4950923;28;20170;-39
2021/12/19 10:59:08;;;;;;;1.70;1.60;;;14.70;63.90;15.80;102239.00;;;;4951104;28;20660;-40
2021/12/19 11:01:44;;;;;;;1.70;1.60;;;14.70;64.10;15.80;102240.00;;;;4950763;28;20695;-39
2021/12/19 11:04:19;;;;;;;1.90;1.80;;;14.70;64.20;15.80;102235.00;;;;4950958;28;20209;-39
2021/12/19 11:07:02;;;;;;;1.90;1.80;;;14.70;64.40;15.70;102234.00;;;;4950417;28;20181;-39
2021/12/19 11:09:30;;;;;;;2.23;1.60;;;14.70;64.50;15.70;102226.00;;;;4951093;28;20177;-39
2021/12/19 11:12:05;;;;;;;1.80;1.70;;;14.70;64.40;15.70;102236.00;;;;4951464;28;20166;-39
2021/12/19 11:14:40;;;;;;;1.80;1.70;;;14.70;64.30;15.70;102230.00;;;;4950933;28;20209;-39
2021/12/19 11:17:09;;;;;;;1.97;1.80;;;14.70;64.30;15.70;102211.00;;;;4950217;28;20212;-39
2021/12/19 11:19:35;;;;;;;1.97;1.80;;;14.60;64.40;15.70;102214.00;;;;4950546;28;20249;-39
2021/12/19 11:22:01;;;;;;;2.20;1.80;;;14.70;64.30;15.70;102202.00;;;;4969545;28;20735;-39
2021/12/19 11:24:26;;;;;;;2.00;1.80;;;14.70;64.70;15.70;102205.00;;;;4969651;28;20199;-40
2021/12/19 11:26:55;;;;;;;1.80;1.70;;;14.60;64.30;15.70;102213.00;;;;4954238;28;20181;-39
2021/12/19 11:29:21;;;;;;;1.87;1.77;;;14.60;64.30;15.70;102195.00;;;;4950061;28;20222;-39
2021/12/19 11:31:52;;;;;;;2.07;1.60;;;14.60;64.30;15.70;102199.00;;;;4953169;28;20555;-39
2021/12/19 11:34:56;;;;;;;1.93;1.70;;;14.60;64.50;15.70;102192.00;;;;4969759;28;20656;-39
2021/12/19 11:37:26;;;;;;;1.93;1.73;;;14.60;64.40;15.70;102130.00;;;;4966819;28;20203;-39
2021/12/19 11:39:54;;;;;;;2.03;1.90;;;14.60;64.50;15.60;102183.00;;;;4969607;28;20710;-39
2021/12/19 11:42:32;;;;;;;1.90;1.80;;;14.50;64.50;15.70;102182.00;;;;4969281;28;20241;-39
2021/12/19 11:47:49;;;;;;;1.63;1.53;;;14.50;64.40;15.60;102188.00;;;;4967750;28;20193;-39
2021/12/19 11:50:27;;;;;;;1.87;1.70;;;14.50;64.40;15.60;102188.00;;;;4969508;28;20245;-39
2021/12/19 11:52:57;;;;;;;1.47;1.40;;;14.50;64.40;15.60;102184.00;;;;4969300;28;20626;-39
2021/12/19 11:55:55;;;;;;;1.80;1.70;;;14.50;64.80;15.60;102183.00;;;;4969040;28;20204;-40
2021/12/19 11:58:27;;;;;;;1.63;1.53;;;14.50;64.30;15.60;102186.00;;;;4968212;28;20608;-39